Time;durP1;ratioP1;P1;durP2;ratioP2;P2;SDS_P1;SDS_P2;PMS_P1;PMS_P2;Temp;Humidity;BMP_temperature;BMP_pressure;BME280_temperature;BME280_humidity;BME280_pressure;Samples;Min_cycle;Max_cycle;Signal;HPM_P1;HPM_P2
2022/07/17 00:00:17;;;;;;;7.40;6.75;;;31.20;1.00;;;;;;5149637;27;20138;-57
2022/07/17 00:02:43;;;;;;;7.13;6.53;;;31.10;1.00;;;;;;5151459;27;20055;-56
2022/07/17 00:05:09;;;;;;;9.32;6.57;;;31.10;1.00;;;;;;5151219;27;20077;-56
2022/07/17 00:07:34;;;;;;;8.52;6.50;;;31.20;1.00;;;;;;5151191;27;20069;-56
2022/07/17 00:10:00;;;;;;;8.18;7.40;;;31.30;1.00;;;;;;5153359;27;20047;-52
2022/07/17 00:12:26;;;;;;;9.95;6.47;;;31.20;1.00;;;;;;5151326;27;20093;-56
2022/07/17 00:14:51;;;;;;;9.05;7.22;;;31.30;1.00;;;;;;5149689;27;20030;-55
2022/07/17 00:17:17;;;;;;;8.02;6.63;;;31.30;1.00;;;;;;5145939;27;20034;-56
2022/07/17 00:19:43;;;;;;;8.27;7.15;;;31.20;1.00;;;;;;5151275;27;20376;-56
2022/07/17 00:22:08;;;;;;;8.35;7.65;;;31.30;1.00;;;;;;5146819;27;20080;-56
2022/07/17 00:24:34;;;;;;;8.48;7.60;;;31.30;1.00;;;;;;5146057;27;20764;-56
2022/07/17 00:27:00;;;;;;;10.20;8.35;;;31.20;1.00;;;;;;5143210;27;20026;-57
2022/07/17 00:29:26;;;;;;;12.48;11.27;;;30.90;1.00;;;;;;5148685;27;20109;-55
2022/07/17 00:31:51;;;;;;;11.45;10.10;;;30.70;1.00;;;;;;5142598;27;20617;-56
2022/07/17 00:34:17;;;;;;;11.90;10.82;;;30.50;1.00;;;;;;5151605;27;20023;-57
2022/07/17 00:36:43;;;;;;;14.07;11.18;;;30.40;1.00;;;;;;5154593;27;20078;-56
2022/07/17 00:39:09;;;;;;;13.25;11.82;;;30.30;1.00;;;;;;5149329;27;20120;-55
2022/07/17 00:41:35;;;;;;;10.98;10.07;;;30.30;1.00;;;;;;5148334;27;20038;-57
2022/07/17 00:44:11;;;;;;;11.63;10.45;;;30.20;1.00;;;;;;5148680;27;20034;-57
2022/07/17 00:46:38;;;;;;;10.77;9.68;;;30.30;1.00;;;;;;5149811;27;20539;-57
2022/07/17 00:49:05;;;;;;;12.27;11.18;;;30.30;1.00;;;;;;5151545;27;20029;-55
2022/07/17 00:51:32;;;;;;;17.00;11.18;;;30.10;1.00;;;;;;5147205;27;20068;-58
2022/07/17 00:53:59;;;;;;;11.48;10.40;;;30.20;1.00;;;;;;5142210;27;20095;-55
2022/07/17 00:56:26;;;;;;;12.27;10.50;;;30.20;1.00;;;;;;5149662;27;20026;-57
2022/07/17 00:59:02;;;;;;;11.60;10.13;;;30.10;1.00;;;;;;5144714;27;20034;-57
2022/07/17 01:01:29;;;;;;;11.23;10.13;;;30.00;1.00;;;;;;5138805;27;20457;-57
2022/07/17 01:03:54;;;;;;;10.38;9.50;;;30.20;1.00;;;;;;5134222;27;20421;-57
2022/07/17 01:06:20;;;;;;;9.90;8.90;;;30.20;1.00;;;;;;5149470;27;20058;-57
2022/07/17 01:08:45;;;;;;;12.27;9.25;;;30.20;1.00;;;;;;5153063;27;20046;-58
2022/07/17 01:11:11;;;;;;;10.05;8.90;;;30.20;1.00;;;;;;5153596;27;20071;-59
2022/07/17 01:13:37;;;;;;;9.75;8.10;;;30.10;1.00;;;;;;5151872;27;20044;-58
2022/07/17 01:16:03;;;;;;;10.50;8.32;;;30.10;1.00;;;;;;5141209;27;20027;-58
2022/07/17 01:18:29;;;;;;;7.68;7.03;;;30.10;1.00;;;;;;5146406;27;20023;-57
2022/07/17 01:20:54;;;;;;;10.27;7.90;;;30.00;1.00;;;;;;5144188;27;20035;-57
2022/07/17 01:23:20;;;;;;;8.02;6.90;;;30.00;1.00;;;;;;5138844;27;20494;-56
2022/07/17 01:25:47;;;;;;;8.85;7.18;;;30.00;1.00;;;;;;5138816;27;20030;-56
2022/07/17 01:28:13;;;;;;;8.27;7.13;;;30.00;1.00;;;;;;5152521;27;20023;-56
2022/07/17 01:30:50;;;;;;;7.97;7.25;;;30.00;1.00;;;;;;5153117;27;20094;-57
2022/07/17 01:33:16;;;;;;;8.18;7.20;;;29.90;1.00;;;;;;5152630;27;20406;-57
2022/07/17 01:35:42;;;;;;;8.07;6.35;;;29.90;1.00;;;;;;5151927;27;20054;-59
2022/07/17 01:38:08;;;;;;;7.80;6.28;;;29.90;1.00;;;;;;5152793;27;20031;-58
2022/07/17 01:40:34;;;;;;;7.18;6.47;;;29.80;1.00;;;;;;5137551;27;20496;-59
2022/07/17 01:42:59;;;;;;;6.15;5.65;;;29.70;1.00;;;;;;5151427;27;20030;-59
2022/07/17 01:45:26;;;;;;;6.50;5.93;;;29.60;1.00;;;;;;5140915;27;20111;-59
2022/07/17 01:47:52;;;;;;;7.03;6.28;;;29.60;1.00;;;;;;5146738;27;20015;-59
2022/07/17 01:50:18;;;;;;;6.18;5.68;;;29.70;1.00;;;;;;5142534;27;20019;-59
2022/07/17 01:52:45;;;;;;;7.47;5.22;;;29.70;1.00;;;;;;5147132;27;20012;-58
2022/07/17 01:55:13;;;;;;;5.57;5.00;;;29.80;1.00;;;;;;5144392;27;20027;-58
2022/07/17 01:57:39;;;;;;;5.32;4.90;;;29.70;1.00;;;;;;5146929;27;20019;-58
2022/07/17 02:00:07;;;;;;;5.47;4.97;;;29.70;1.00;;;;;;5146199;27;20061;-59
2022/07/17 02:02:33;;;;;;;6.30;4.60;;;29.60;1.00;;;;;;5138214;27;20045;-58
2022/07/17 02:04:58;;;;;;;5.65;5.25;;;29.60;1.00;;;;;;5148514;27;20023;-58
2022/07/17 02:07:24;;;;;;;6.18;5.57;;;29.50;1.00;;;;;;5153044;27;20027;-57
2022/07/17 02:09:50;;;;;;;5.13;4.72;;;29.60;1.00;;;;;;5136939;27;20059;-59
2022/07/17 02:12:15;;;;;;;7.15;5.10;;;29.60;1.00;;;;;;5152534;27;20035;-58
2022/07/17 02:14:41;;;;;;;7.65;4.68;;;29.60;1.00;;;;;;5151990;27;20398;-59
2022/07/17 02:17:07;;;;;;;6.32;5.07;;;29.50;1.00;;;;;;5153259;27;20051;-58
2022/07/17 02:19:32;;;;;;;6.05;4.80;;;29.60;1.00;;;;;;5144941;27;20580;-58
2022/07/17 02:21:58;;;;;;;4.97;4.40;;;29.50;1.00;;;;;;5152083;27;20042;-59
2022/07/17 02:24:23;;;;;;;5.28;4.88;;;29.40;1.00;;;;;;5141620;27;20032;-58
2022/07/17 02:26:49;;;;;;;5.93;4.22;;;29.30;1.00;;;;;;5147538;27;20023;-58
2022/07/17 02:29:15;;;;;;;5.47;5.00;;;29.40;1.00;;;;;;5152525;27;20023;-58
2022/07/17 02:31:40;;;;;;;5.70;5.20;;;29.40;1.00;;;;;;5152766;27;20068;-58
2022/07/17 02:34:06;;;;;;;7.47;4.47;;;29.40;1.00;;;;;;5151096;27;20117;-58
2022/07/17 02:36:32;;;;;;;6.63;4.97;;;29.40;1.00;;;;;;5142706;27;20533;-59
2022/07/17 02:38:57;;;;;;;6.18;4.00;;;29.30;1.00;;;;;;5144582;27;20034;-59
2022/07/17 02:41:23;;;;;;;4.70;4.00;;;29.30;1.00;;;;;;5144561;27;20061;-59
2022/07/17 02:43:49;;;;;;;4.10;3.80;;;29.30;1.00;;;;;;5149059;27;20076;-59
2022/07/17 02:46:14;;;;;;;6.45;4.25;;;29.30;1.00;;;;;;5142862;27;20030;-58
2022/07/17 02:48:41;;;;;;;4.47;4.07;;;29.30;1.00;;;;;;5148256;27;20494;-59
2022/07/17 02:51:08;;;;;;;5.43;3.63;;;29.30;1.00;;;;;;5147044;27;20022;-59
2022/07/17 02:53:33;;;;;;;5.15;4.30;;;29.40;1.00;;;;;;5141791;27;20030;-59
2022/07/17 02:55:59;;;;;;;4.18;3.65;;;29.40;1.00;;;;;;5148727;27;20035;-56
2022/07/17 02:58:25;;;;;;;5.32;4.10;;;29.40;1.00;;;;;;5149787;27;20035;-58
2022/07/17 03:00:51;;;;;;;4.47;3.65;;;29.30;1.00;;;;;;5140110;27;20500;-58
2022/07/17 03:03:19;;;;;;;5.47;3.65;;;29.30;1.00;;;;;;5148269;27;20040;-57
2022/07/17 03:05:45;;;;;;;4.63;4.10;;;29.30;1.00;;;;;;5148700;27;20019;-58
2022/07/17 03:08:10;;;;;;;4.85;4.10;;;29.30;1.00;;;;;;5148559;27;20034;-58
2022/07/17 03:10:36;;;;;;;6.43;3.95;;;29.30;1.00;;;;;;5150264;27;20014;-58
2022/07/17 03:13:02;;;;;;;3.92;3.63;;;29.30;1.00;;;;;;5152818;27;20364;-58
2022/07/17 03:15:27;;;;;;;4.57;4.03;;;29.40;1.00;;;;;;5152503;27;20128;-58
2022/07/17 03:17:53;;;;;;;5.65;4.13;;;29.40;1.00;;;;;;5141475;27;20102;-58
2022/07/17 03:20:19;;;;;;;4.07;3.75;;;29.30;1.00;;;;;;5141427;27;20039;-59
2022/07/17 03:22:44;;;;;;;3.70;3.40;;;29.30;1.00;;;;;;5145137;27;20015;-58
2022/07/17 03:25:10;;;;;;;4.50;3.42;;;29.20;1.00;;;;;;5151170;27;20027;-58
2022/07/17 03:27:35;;;;;;;3.95;3.65;;;29.20;1.00;;;;;;5149780;27;20091;-58
2022/07/17 03:30:01;;;;;;;5.45;3.40;;;29.20;1.00;;;;;;5154453;27;20023;-58
2022/07/17 03:32:28;;;;;;;6.03;3.45;;;29.20;1.00;;;;;;5154513;27;20080;-57
2022/07/17 03:34:53;;;;;;;5.15;3.85;;;29.30;1.00;;;;;;5146732;27;20383;-59
2022/07/17 03:37:19;;;;;;;3.72;3.45;;;29.30;1.00;;;;;;5153996;27;20117;-58
2022/07/17 03:39:44;;;;;;;5.50;3.67;;;29.30;1.00;;;;;;5146380;27;20110;-58
2022/07/17 03:42:10;;;;;;;3.58;3.28;;;29.30;1.00;;;;;;5138588;27;20042;-59
2022/07/17 03:44:36;;;;;;;4.10;3.80;;;29.30;1.00;;;;;;5152631;27;20039;-58
2022/07/17 03:47:01;;;;;;;6.35;4.80;;;29.30;1.00;;;;;;5136613;27;20536;-60
2022/07/17 03:49:27;;;;;;;4.65;3.88;;;29.30;1.00;;;;;;5148364;27;20038;-58
2022/07/17 03:51:52;;;;;;;6.05;4.60;;;29.30;1.00;;;;;;5153401;27;20019;-57
2022/07/17 03:54:18;;;;;;;4.30;3.63;;;29.00;1.00;;;;;;5144430;27;20031;-58
2022/07/17 03:56:43;;;;;;;4.38;4.00;;;29.10;1.00;;;;;;5152474;27;20039;-59
2022/07/17 03:59:09;;;;;;;5.72;4.00;;;29.00;1.00;;;;;;5154504;27;20432;-58
2022/07/17 04:01:35;;;;;;;4.90;3.80;;;29.10;1.00;;;;;;5143296;27;20027;-58
2022/07/17 04:04:00;;;;;;;4.45;4.05;;;29.10;1.00;;;;;;5152177;27;20029;-58
2022/07/17 04:06:26;;;;;;;4.93;4.20;;;29.10;1.00;;;;;;5137510;27;20076;-58
2022/07/17 04:08:52;;;;;;;4.55;4.20;;;29.10;1.00;;;;;;5146581;27;20079;-59
2022/07/17 04:11:19;;;;;;;6.05;4.13;;;29.10;1.00;;;;;;5145339;27;20462;-58
2022/07/17 04:13:45;;;;;;;4.82;4.10;;;29.00;1.00;;;;;;5141835;27;20476;-57
2022/07/17 04:16:11;;;;;;;4.60;4.18;;;28.90;1.00;;;;;;5152632;27;20087;-58
2022/07/17 04:18:37;;;;;;;4.88;4.28;;;28.70;1.00;;;;;;5149567;27;20188;-57
2022/07/17 04:21:10;;;;;;;4.80;4.50;;;28.80;1.00;;;;;;5148376;27;20484;-58
2022/07/17 04:23:36;;;;;;;5.00;4.18;;;28.60;1.00;;;;;;5147033;27;20110;-58
2022/07/17 04:26:03;;;;;;;5.22;3.92;;;28.60;1.00;;;;;;5149968;27;20023;-59
2022/07/17 04:28:29;;;;;;;4.78;4.18;;;28.60;1.00;;;;;;5151343;27;20019;-58
2022/07/17 04:30:54;;;;;;;4.90;4.35;;;28.70;1.00;;;;;;5149776;27;20079;-58
2022/07/17 04:33:20;;;;;;;4.78;4.35;;;28.60;1.00;;;;;;5149253;27;20037;-59
2022/07/17 04:35:46;;;;;;;4.78;4.32;;;28.60;1.00;;;;;;5142155;27;20047;-59
2022/07/17 04:38:12;;;;;;;5.43;4.43;;;28.60;1.00;;;;;;5153556;27;20026;-58
2022/07/17 04:40:38;;;;;;;5.03;4.53;;;28.60;1.00;;;;;;5145909;27;20035;-59
2022/07/17 04:43:05;;;;;;;6.05;4.80;;;28.70;1.00;;;;;;5153166;27;20035;-58
2022/07/17 04:45:32;;;;;;;7.03;5.25;;;28.80;1.00;;;;;;5152698;27;20134;-58
2022/07/17 04:47:58;;;;;;;5.78;5.10;;;28.80;1.00;;;;;;5147625;27;20027;-59
2022/07/17 04:50:24;;;;;;;7.43;4.93;;;28.70;1.00;;;;;;5152961;27;20370;-59
2022/07/17 04:52:50;;;;;;;4.97;4.53;;;28.60;1.00;;;;;;5152165;27;20152;-58
2022/07/17 04:55:16;;;;;;;5.38;4.80;;;28.80;1.00;;;;;;5150414;27;20033;-58
2022/07/17 04:57:43;;;;;;;10.70;5.10;;;28.70;1.00;;;;;;5151921;27;20023;-58
2022/07/17 05:00:10;;;;;;;5.40;4.63;;;28.70;1.00;;;;;;5145488;27;20055;-57
2022/07/17 05:02:36;;;;;;;6.90;4.50;;;28.70;1.00;;;;;;5150778;27;20029;-57
2022/07/17 05:05:02;;;;;;;6.00;5.60;;;28.70;1.00;;;;;;5148780;27;20035;-58
2022/07/17 05:07:27;;;;;;;6.03;5.50;;;28.50;1.00;;;;;;5148590;27;20376;-58
2022/07/17 05:09:53;;;;;;;7.03;6.32;;;28.40;1.00;;;;;;5152463;27;20023;-56
2022/07/17 05:12:19;;;;;;;10.05;7.10;;;28.60;1.00;;;;;;5147016;27;20031;-58
2022/07/17 05:14:44;;;;;;;10.88;7.60;;;28.60;1.00;;;;;;5150083;27;20027;-55
2022/07/17 05:17:10;;;;;;;9.85;7.22;;;28.50;1.00;;;;;;5151676;27;20050;-53
2022/07/17 05:19:36;;;;;;;10.80;7.68;;;28.50;1.00;;;;;;5152293;27;20480;-57
2022/07/17 05:22:01;;;;;;;7.60;6.93;;;28.30;1.00;;;;;;5149860;27;20035;-53
2022/07/17 05:24:27;;;;;;;10.55;7.47;;;28.30;1.00;;;;;;5153414;27;20023;-56
2022/07/17 05:26:53;;;;;;;7.45;6.78;;;28.30;1.00;;;;;;5147862;27;20026;-55
2022/07/17 05:29:19;;;;;;;10.55;7.65;;;28.30;1.00;;;;;;5147882;27;20031;-56
2022/07/17 05:31:44;;;;;;;9.77;8.55;;;28.10;1.00;;;;;;5150209;27;20023;-57
2022/07/17 05:34:10;;;;;;;9.02;8.00;;;28.20;1.00;;;;;;5151067;27;20491;-57
2022/07/17 05:36:36;;;;;;;9.45;8.23;;;28.30;1.00;;;;;;5146894;27;20042;-56
2022/07/17 05:39:02;;;;;;;8.30;7.53;;;28.50;1.00;;;;;;5152689;27;20368;-56
2022/07/17 05:41:27;;;;;;;7.80;6.55;;;28.50;1.00;;;;;;5146161;27;20395;-56
2022/07/17 05:43:53;;;;;;;9.15;8.25;;;28.60;1.00;;;;;;5145525;27;20015;-56
2022/07/17 05:46:19;;;;;;;12.02;8.60;;;28.60;1.00;;;;;;5146856;27;20034;-56
2022/07/17 05:48:44;;;;;;;9.68;7.78;;;28.70;1.00;;;;;;5153475;27;20467;-53
2022/07/17 05:51:10;;;;;;;9.18;8.32;;;28.60;1.00;;;;;;5152607;27;20039;-57
2022/07/17 05:53:35;;;;;;;10.50;9.60;;;28.50;1.00;;;;;;5139962;27;20015;-57
2022/07/17 05:56:01;;;;;;;9.40;8.10;;;28.40;1.00;;;;;;5151079;27;20047;-56
2022/07/17 05:58:27;;;;;;;8.65;7.88;;;28.40;1.00;;;;;;5143284;27;20483;-56
2022/07/17 06:00:53;;;;;;;8.82;7.93;;;28.40;1.00;;;;;;5144021;27;20110;-55
2022/07/17 06:03:19;;;;;;;10.35;7.93;;;28.40;1.00;;;;;;5138903;27;20120;-54
2022/07/17 06:05:45;;;;;;;8.43;7.63;;;28.70;1.00;;;;;;5143780;27;20507;-54
2022/07/17 06:08:10;;;;;;;8.90;8.05;;;28.70;1.00;;;;;;5151374;27;20153;-53
2022/07/17 06:10:37;;;;;;;9.52;7.72;;;28.80;1.00;;;;;;5137793;27;20087;-56
2022/07/17 06:13:03;;;;;;;9.82;7.68;;;28.80;1.00;;;;;;5140047;27;20061;-57
2022/07/17 06:15:29;;;;;;;7.90;7.25;;;28.80;1.00;;;;;;5150111;27;20456;-57
2022/07/17 06:17:54;;;;;;;6.97;6.38;;;28.70;1.00;;;;;;5139429;27;20058;-57
2022/07/17 06:20:20;;;;;;;8.50;7.70;;;28.80;1.00;;;;;;5150409;27;20046;-57
2022/07/17 06:22:46;;;;;;;8.30;7.68;;;28.80;1.00;;;;;;5148880;27;20058;-57
2022/07/17 06:25:12;;;;;;;8.80;8.10;;;28.80;1.00;;;;;;5148724;27;20167;-57
2022/07/17 06:27:42;;;;;;;9.10;7.47;;;28.80;1.00;;;;;;5142065;27;20400;-57
2022/07/17 06:30:12;;;;;;;7.97;7.20;;;28.90;1.00;;;;;;5147659;27;20098;-55
2022/07/17 06:32:37;;;;;;;11.85;7.32;;;28.80;1.00;;;;;;5147854;27;20459;-56
2022/07/17 06:35:03;;;;;;;9.00;8.27;;;28.80;1.00;;;;;;5147258;27;20031;-57
2022/07/17 06:37:29;;;;;;;8.55;7.43;;;28.80;1.00;;;;;;5150611;27;20496;-56
2022/07/17 06:39:55;;;;;;;7.95;7.22;;;28.90;1.00;;;;;;5145923;27;20031;-56
2022/07/17 06:42:21;;;;;;;12.90;6.57;;;28.90;1.00;;;;;;5144615;27;20050;-57
2022/07/17 06:44:46;;;;;;;7.38;6.60;;;28.90;1.00;;;;;;5143744;27;20357;-54
2022/07/17 06:47:12;;;;;;;6.95;6.32;;;29.00;1.00;;;;;;5150385;27;20019;-57
2022/07/17 06:49:38;;;;;;;6.93;5.60;;;28.80;1.00;;;;;;5148282;27;20023;-57
2022/07/17 06:52:04;;;;;;;6.95;6.32;;;28.90;1.00;;;;;;5147358;27;20018;-57
2022/07/17 06:54:29;;;;;;;6.72;6.05;;;29.00;1.00;;;;;;5152281;27;20027;-56
2022/07/17 06:56:55;;;;;;;8.00;6.25;;;29.00;1.00;;;;;;5148088;27;20041;-57
2022/07/17 06:59:21;;;;;;;8.18;6.20;;;28.90;1.00;;;;;;5149009;27;20027;-57
2022/07/17 07:01:47;;;;;;;7.85;6.15;;;28.90;1.00;;;;;;5152939;27;20054;-56
2022/07/17 07:04:12;;;;;;;6.40;5.80;;;29.00;1.00;;;;;;5144362;27;20413;-56
2022/07/17 07:06:38;;;;;;;6.82;5.82;;;28.90;1.00;;;;;;5146391;27;20027;-57
2022/07/17 07:09:04;;;;;;;6.35;5.88;;;28.80;1.00;;;;;;5157042;27;20018;-59
2022/07/17 07:11:30;;;;;;;8.70;6.57;;;28.90;1.00;;;;;;5155978;27;20027;-58
2022/07/17 07:13:56;;;;;;;6.30;5.80;;;29.00;1.00;;;;;;5156761;27;20511;-58
2022/07/17 07:16:21;;;;;;;6.43;5.93;;;29.00;1.00;;;;;;5155911;27;20094;-59
2022/07/17 07:18:47;;;;;;;6.82;6.18;;;29.00;1.00;;;;;;5142805;27;20015;-59
2022/07/17 07:21:13;;;;;;;6.95;5.40;;;29.10;1.00;;;;;;5155371;27;20095;-59
2022/07/17 07:23:39;;;;;;;6.00;5.47;;;29.10;1.00;;;;;;5156375;27;20019;-58
2022/07/17 07:26:04;;;;;;;7.15;5.88;;;29.30;1.00;;;;;;5151423;27;20033;-58
2022/07/17 07:28:30;;;;;;;5.95;5.45;;;29.30;1.00;;;;;;5153502;27;20110;-58
2022/07/17 07:30:56;;;;;;;6.03;5.47;;;29.40;1.00;;;;;;5154540;27;20052;-58
2022/07/17 07:33:22;;;;;;;6.38;5.78;;;29.40;1.00;;;;;;5152113;27;20019;-59
2022/07/17 07:35:49;;;;;;;9.07;5.40;;;29.40;1.00;;;;;;5154572;27;20042;-59
2022/07/17 07:38:15;;;;;;;5.43;4.90;;;29.40;1.00;;;;;;5155946;27;20026;-59
2022/07/17 07:40:41;;;;;;;4.70;4.20;;;29.40;1.00;;;;;;5153762;27;20352;-59
2022/07/17 07:43:07;;;;;;;13.93;5.75;;;29.30;1.00;;;;;;5152419;27;20019;-59
2022/07/17 07:45:33;;;;;;;6.03;5.43;;;29.40;1.00;;;;;;5155151;27;20457;-59
2022/07/17 07:47:58;;;;;;;5.25;4.75;;;29.40;1.00;;;;;;5146409;27;20031;-59
2022/07/17 07:50:25;;;;;;;5.45;5.00;;;29.40;1.00;;;;;;5148217;27;20098;-59
2022/07/17 07:52:52;;;;;;;6.68;5.07;;;29.60;1.00;;;;;;5155088;27;20034;-59
2022/07/17 07:55:18;;;;;;;5.50;5.00;;;29.80;1.00;;;;;;5147291;27;20049;-59
2022/07/17 07:57:44;;;;;;;5.95;5.28;;;29.90;1.00;;;;;;5155499;27;20018;-59
2022/07/17 08:00:11;;;;;;;5.47;4.65;;;30.00;1.00;;;;;;5154614;27;20097;-59
2022/07/17 08:02:37;;;;;;;7.90;4.97;;;30.10;1.00;;;;;;5154888;27;20053;-59
2022/07/17 08:05:03;;;;;;;7.53;4.55;;;29.90;1.00;;;;;;5155663;27;20026;-58
2022/07/17 08:07:30;;;;;;;4.88;4.43;;;30.10;1.00;;;;;;5151903;27;20030;-58
2022/07/17 08:09:56;;;;;;;5.50;4.07;;;30.10;1.00;;;;;;5153889;27;20439;-57
2022/07/17 08:12:22;;;;;;;7.70;4.50;;;30.30;1.00;;;;;;5152535;27;20050;-59
2022/07/17 08:14:48;;;;;;;4.68;4.05;;;30.30;1.00;;;;;;5155020;27;20019;-59
2022/07/17 08:17:14;;;;;;;4.90;4.55;;;30.60;1.00;;;;;;5153101;27;20048;-58
2022/07/17 08:19:40;;;;;;;4.88;4.53;;;30.50;1.00;;;;;;5155081;27;20444;-59
2022/07/17 08:22:05;;;;;;;6.00;4.22;;;30.60;1.00;;;;;;5141228;27;20460;-59
2022/07/17 08:24:31;;;;;;;10.02;4.38;;;30.70;1.00;;;;;;5155205;27;20018;-60
2022/07/17 08:26:57;;;;;;;4.78;4.20;;;30.80;1.00;;;;;;5154626;27;20031;-59
2022/07/17 08:29:22;;;;;;;4.82;4.43;;;30.90;1.00;;;;;;5155181;27;20027;-58
2022/07/17 08:31:48;;;;;;;4.68;4.07;;;31.10;1.00;;;;;;5154964;27;20019;-59
2022/07/17 08:34:14;;;;;;;4.85;4.35;;;31.10;1.00;;;;;;5149659;27;20018;-59
2022/07/17 08:37:35;;;;;;;4.65;4.20;;;31.00;1.00;;;;;;5152272;27;20053;-59
2022/07/17 08:40:01;;;;;;;4.53;4.22;;;31.20;1.00;;;;;;5150352;27;20054;-60
2022/07/17 08:42:31;;;;;;;4.60;4.00;;;31.30;1.00;;;;;;5149556;27;20476;-58
2022/07/17 08:44:57;;;;;;;5.53;4.00;;;31.60;1.00;;;;;;5152341;27;20034;-58
2022/07/17 08:47:23;;;;;;;5.07;4.05;;;31.40;1.00;;;;;;5152445;27;20019;-58
2022/07/17 08:49:49;;;;;;;5.80;4.50;;;31.50;1.00;;;;;;5150776;27;20035;-58
2022/07/17 08:52:15;;;;;;;7.32;4.05;;;31.80;1.00;;;;;;5151425;27;20023;-58
2022/07/17 08:54:41;;;;;;;7.20;4.20;;;31.80;1.00;;;;;;5150069;27;20030;-59
2022/07/17 08:57:09;;;;;;;6.00;4.30;;;31.80;1.00;;;;;;5151641;27;20057;-59
2022/07/17 08:59:34;;;;;;;4.32;3.92;;;32.00;1.00;;;;;;5151641;27;20066;-59
2022/07/17 09:02:00;;;;;;;6.78;4.88;;;32.10;1.00;;;;;;5151077;27;20043;-59
2022/07/17 09:04:27;;;;;;;8.27;4.97;;;32.10;1.00;;;;;;5145696;27;20087;-59
2022/07/17 09:07:04;;;;;;;4.78;4.32;;;32.10;1.00;;;;;;5150492;27;20480;-59
2022/07/17 09:09:30;;;;;;;7.90;5.18;;;32.50;1.00;;;;;;5148525;27;20042;-51
2022/07/17 09:11:58;;;;;;;4.60;4.18;;;32.50;1.00;;;;;;5145858;27;20076;-51
2022/07/17 09:14:35;;;;;;;4.70;4.32;;;32.50;1.00;;;;;;5143468;27;20480;-55
2022/07/17 09:17:00;;;;;;;4.78;4.28;;;32.50;1.00;;;;;;5153711;27;20076;-53
2022/07/17 09:19:41;;;;;;;5.38;4.72;;;32.50;1.00;;;;;;5150089;27;20448;-52
2022/07/17 09:22:09;;;;;;;6.95;4.60;;;32.40;1.00;;;;;;5149829;27;20062;-56
2022/07/17 09:24:54;;;;;;;5.38;4.10;;;32.60;1.00;;;;;;5147179;27;20106;-51
2022/07/17 09:27:32;;;;;;;6.70;4.22;;;32.30;1.00;;;;;;5148266;27;20027;-52
2022/07/17 09:30:05;;;;;;;6.30;4.50;;;32.60;1.00;;;;;;5139231;27;20698;-53
2022/07/17 09:32:34;;;;;;;5.03;4.63;;;32.60;1.00;;;;;;5135913;27;20136;-54
2022/07/17 09:35:01;;;;;;;5.20;4.70;;;32.50;1.00;;;;;;5138391;27;20050;-52
2022/07/17 09:37:28;;;;;;;9.20;4.53;;;32.90;1.00;;;;;;5148114;27;20039;-55
2022/07/17 09:39:55;;;;;;;4.78;4.32;;;32.70;1.00;;;;;;5136038;27;20072;-55
2022/07/17 09:42:22;;;;;;;6.57;5.05;;;32.90;1.00;;;;;;5140114;27;20049;-55
2022/07/17 09:45:03;;;;;;;5.93;4.75;;;33.10;1.00;;;;;;5145819;27;20019;-54
2022/07/17 09:47:31;;;;;;;4.43;4.03;;;33.20;1.00;;;;;;5148007;27;20129;-53
2022/07/17 09:49:58;;;;;;;5.80;4.22;;;33.20;1.00;;;;;;5145264;27;20027;-56
2022/07/17 09:52:29;;;;;;;5.03;4.47;;;33.00;1.00;;;;;;5151337;27;20169;-53
2022/07/17 09:54:56;;;;;;;6.28;4.63;;;32.70;1.00;;;;;;5145873;27;20056;-66
2022/07/17 09:57:30;;;;;;;5.78;5.00;;;32.50;1.00;;;;;;5145599;27;20019;-51
2022/07/17 10:00:00;;;;;;;5.68;5.15;;;32.50;1.00;;;;;;5151161;27;20105;-55
2022/07/17 10:02:26;;;;;;;7.38;5.07;;;32.50;1.00;;;;;;5150710;27;20432;-56
2022/07/17 10:04:52;;;;;;;8.48;5.13;;;32.50;1.00;;;;;;5148286;27;20105;-57
2022/07/17 10:07:21;;;;;;;8.63;4.93;;;31.90;1.00;;;;;;5151800;27;20097;-55
2022/07/17 10:09:47;;;;;;;5.28;4.80;;;32.20;1.00;;;;;;5147687;27;20045;-59
2022/07/17 10:12:14;;;;;;;10.82;5.32;;;32.30;1.00;;;;;;5148520;27;20018;-52
2022/07/17 10:14:41;;;;;;;10.35;5.07;;;32.70;1.00;;;;;;5152071;27;20072;-50
2022/07/17 10:17:11;;;;;;;5.95;4.63;;;32.60;1.00;;;;;;5144509;27;20027;-51
2022/07/17 10:19:54;;;;;;;5.80;4.90;;;32.60;1.00;;;;;;5145462;27;20026;-51
2022/07/17 10:22:22;;;;;;;5.97;5.40;;;32.60;1.00;;;;;;5141594;27;20046;-52
2022/07/17 10:24:55;;;;;;;5.47;4.78;;;32.70;1.00;;;;;;5142618;27;20052;-51
2022/07/17 10:27:27;;;;;;;4.95;4.55;;;32.80;1.00;;;;;;5130248;27;20023;-52
2022/07/17 10:30:08;;;;;;;4.90;4.43;;;32.70;1.00;;;;;;5135319;27;20023;-56
2022/07/17 10:32:34;;;;;;;4.82;4.53;;;32.70;1.00;;;;;;5152186;27;20065;-54
2022/07/17 10:35:01;;;;;;;5.50;5.00;;;33.00;1.00;;;;;;5148901;27;20433;-57
2022/07/17 10:37:27;;;;;;;6.10;5.28;;;33.00;1.00;;;;;;5151746;27;20065;-57
2022/07/17 10:40:05;;;;;;;5.63;5.05;;;33.10;1.00;;;;;;5151996;27;20019;-56
2022/07/17 10:42:38;;;;;;;6.20;5.57;;;33.20;1.00;;;;;;5148086;27;20106;-54
2022/07/17 10:45:15;;;;;;;8.32;5.57;;;33.30;1.00;;;;;;5146957;27;20052;-55
2022/07/17 10:47:54;;;;;;;5.82;5.15;;;33.40;1.00;;;;;;5152803;27;20365;-56
2022/07/17 10:50:27;;;;;;;6.65;5.70;;;33.40;1.00;;;;;;5151742;27;20026;-55
2022/07/17 10:53:20;;;;;;;5.82;5.32;;;33.40;1.00;;;;;;5152732;27;20365;-57
2022/07/17 10:55:57;;;;;;;6.35;5.00;;;33.40;1.00;;;;;;5134744;27;20032;-57
2022/07/17 10:58:34;;;;;;;5.75;5.25;;;33.50;1.00;;;;;;5151846;27;20079;-56
2022/07/17 11:01:09;;;;;;;6.00;5.40;;;33.50;1.00;;;;;;5152435;27;20095;-57
2022/07/17 11:03:54;;;;;;;6.53;5.22;;;33.70;1.00;;;;;;5151903;27;20095;-58
2022/07/17 11:06:23;;;;;;;7.82;5.43;;;33.70;1.00;;;;;;5152738;27;20051;-57
2022/07/17 11:09:03;;;;;;;5.40;5.00;;;33.80;1.00;;;;;;5144617;27;20014;-57
2022/07/17 11:11:38;;;;;;;5.78;4.90;;;33.80;1.00;;;;;;5150597;27;20023;-57
2022/07/17 11:14:27;;;;;;;5.85;5.30;;;33.90;1.00;;;;;;5147473;27;20438;-58
2022/07/17 11:17:01;;;;;;;6.97;5.40;;;33.90;1.00;;;;;;5143375;27;20390;-58
2022/07/17 11:19:32;;;;;;;5.28;4.75;;;33.80;1.00;;;;;;5144574;27;20038;-58
2022/07/17 11:22:04;;;;;;;6.18;5.57;;;34.10;1.00;;;;;;5145737;27;20118;-56
2022/07/17 11:24:43;;;;;;;6.15;5.65;;;34.20;1.00;;;;;;5131133;27;20041;-56
2022/07/17 11:27:21;;;;;;;6.05;5.45;;;34.10;1.00;;;;;;5134040;27;20023;-56
2022/07/17 11:29:48;;;;;;;7.65;5.57;;;34.40;1.00;;;;;;5151375;27;20030;-57
2022/07/17 11:32:14;;;;;;;5.90;5.45;;;34.30;1.00;;;;;;5156134;27;20129;-57
2022/07/17 11:34:40;;;;;;;5.50;5.10;;;34.60;1.00;;;;;;5155621;27;20023;-58
2022/07/17 11:37:07;;;;;;;7.57;6.20;;;35.50;1.00;;;;;;5151510;27;20062;-58
2022/07/17 11:39:40;;;;;;;7.18;5.80;;;36.60;1.00;;;;;;5145043;27;20110;-54
2022/07/17 11:42:20;;;;;;;7.55;5.50;;;36.40;1.00;;;;;;5153155;27;20152;-57
2022/07/17 11:44:51;;;;;;;5.80;5.40;;;36.40;1.00;;;;;;5154431;27;20534;-58
2022/07/17 11:47:27;;;;;;;5.80;5.30;;;36.30;1.00;;;;;;5153744;27;20491;-57
2022/07/17 11:50:05;;;;;;;6.50;5.93;;;37.10;1.00;;;;;;5154525;27;20373;-58
2022/07/17 11:52:43;;;;;;;6.47;5.88;;;39.20;1.00;;;;;;5152382;27;20046;-58
2022/07/17 11:55:10;;;;;;;6.15;5.75;;;39.90;1.00;;;;;;5148490;27;20075;-58
2022/07/17 11:57:43;;;;;;;6.45;5.90;;;40.60;1.00;;;;;;5142379;27;20035;-58
2022/07/17 12:00:10;;;;;;;6.57;5.82;;;40.50;1.00;;;;;;5149529;27;20113;-58
2022/07/17 12:02:36;;;;;;;6.55;6.03;;;40.60;1.00;;;;;;5140373;27;20046;-59
2022/07/17 12:05:02;;;;;;;8.13;6.07;;;40.80;1.00;;;;;;5153544;27;20022;-56
2022/07/17 12:07:39;;;;;;;7.05;6.55;;;42.00;1.00;;;;;;5151688;27;20508;-58
2022/07/17 12:10:21;;;;;;;6.05;5.65;;;42.40;1.00;;;;;;5152279;27;20106;-58
2022/07/17 12:12:59;;;;;;;5.97;5.63;;;42.60;1.00;;;;;;5141420;27;20488;-58
2022/07/17 12:15:41;;;;;;;6.35;5.90;;;42.70;1.00;;;;;;5152802;27;20071;-58
2022/07/17 12:18:25;;;;;;;6.45;5.95;;;42.00;1.00;;;;;;5142057;27;20027;-58
2022/07/17 12:20:54;;;;;;;6.78;6.28;;;41.10;1.00;;;;;;5149894;27;20035;-62
2022/07/17 12:23:37;;;;;;;5.93;5.45;;;41.00;1.00;;;;;;5143732;27;20033;-62
2022/07/17 12:26:07;;;;;;;;;;;41.00;1.00;;;;;;5152440;27;20310;-57
2022/07/17 12:28:33;;;;;;;6.43;6.03;;;41.60;1.00;;;;;;5154433;27;19979;-54
2022/07/17 12:30:58;;;;;;;6.78;6.05;;;41.50;1.00;;;;;;5149128;27;20346;-55
2022/07/17 12:33:24;;;;;;;6.38;5.82;;;39.20;1.00;;;;;;5152807;27;20126;-57
2022/07/17 12:35:50;;;;;;;6.22;5.82;;;38.30;1.00;;;;;;5145193;27;20437;-57
2022/07/17 12:38:15;;;;;;;6.18;5.70;;;38.10;1.00;;;;;;5145187;27;20105;-56
2022/07/17 12:40:41;;;;;;;7.55;6.00;;;37.50;1.00;;;;;;5145984;27;20464;-53
2022/07/17 12:43:08;;;;;;;6.07;5.68;;;37.30;1.00;;;;;;5142958;27;20019;-55
2022/07/17 12:45:34;;;;;;;6.05;5.55;;;36.90;1.00;;;;;;5145270;27;20095;-53
2022/07/17 12:48:00;;;;;;;5.85;5.45;;;36.80;1.00;;;;;;5143375;27;20019;-55
2022/07/17 12:50:26;;;;;;;5.95;5.45;;;36.70;1.00;;;;;;5150559;27;20138;-56
2022/07/17 12:52:52;;;;;;;6.85;5.45;;;36.60;1.00;;;;;;5153886;27;20014;-54
2022/07/17 12:55:17;;;;;;;5.50;5.20;;;36.40;1.00;;;;;;5152127;27;20540;-56
2022/07/17 12:57:43;;;;;;;5.45;4.93;;;36.50;1.00;;;;;;5139133;27;20091;-53